Time;durP1;ratioP1;P1;durP2;ratioP2;P2;SDS_P1;SDS_P2;PMS_P1;PMS_P2;Temp;Humidity;BMP_temperature;BMP_pressure;BME280_temperature;BME280_humidity;BME280_pressure;Samples;Min_cycle;Max_cycle;Signal;HPM_P1;HPM_P2
2023/05/14 00:00:27;;;;;;;2.10;2.00;;;;;;;20.52;58.77;97447.97;4956195;28;20224;-31
2023/05/14 00:02:54;;;;;;;1.90;1.80;;;;;;;20.51;58.73;97453.91;4956751;28;20207;-31
2023/05/14 00:05:21;;;;;;;2.50;2.30;;;;;;;20.51;58.69;97446.25;4956159;28;20212;-31
2023/05/14 00:07:47;;;;;;;2.03;1.93;;;;;;;20.51;58.65;97443.69;4956185;28;20310;-31
2023/05/14 00:10:14;;;;;;;2.10;2.00;;;;;;;20.50;58.72;97436.84;4956494;28;20212;-31
2023/05/14 00:12:41;;;;;;;2.37;2.17;;;;;;;20.51;58.68;97440.25;4948520;28;20295;-31
2023/05/14 00:15:07;;;;;;;2.13;2.03;;;;;;;20.50;58.72;97439.41;4956545;28;20279;-31
2023/05/14 00:17:34;;;;;;;2.07;1.97;;;;;;;20.49;58.82;97440.19;4955768;28;20278;-31
2023/05/14 00:20:01;;;;;;;2.33;2.20;;;;;;;20.49;58.71;97440.19;4955904;28;20425;-30
2023/05/14 00:22:27;;;;;;;2.53;2.33;;;;;;;20.49;58.56;97436.81;4956001;28;20666;-29
2023/05/14 00:24:54;;;;;;;2.37;2.23;;;;;;;20.48;58.84;97433.38;4954862;28;20205;-31
2023/05/14 00:27:21;;;;;;;2.00;1.90;;;;;;;20.48;58.99;97433.38;4955597;28;20295;-31
2023/05/14 00:29:47;;;;;;;2.20;2.10;;;;;;;20.44;58.77;97430.69;4954918;29;20633;-31
2023/05/14 00:32:14;;;;;;;1.90;1.80;;;;;;;20.48;59.10;97435.06;4954903;29;20211;-31
2023/05/14 00:34:40;;;;;;;2.00;1.90;;;;;;;20.47;58.71;97436.75;4954666;29;20703;-31
2023/05/14 00:37:07;;;;;;;2.33;2.10;;;;;;;20.49;58.80;97439.38;4955942;28;20577;-30
2023/05/14 00:39:33;;;;;;;2.20;2.10;;;;;;;20.48;58.76;97441.03;4955798;28;20228;-31
2023/05/14 00:42:00;;;;;;;2.20;2.10;;;;;;;20.48;58.79;97437.59;4954627;28;20239;-31
2023/05/14 00:44:26;;;;;;;3.50;2.00;;;;;;;20.44;58.87;97434.09;4954822;29;20201;-31
2023/05/14 00:46:53;;;;;;;1.90;1.80;;;;;;;20.46;59.07;97432.44;4955634;28;20201;-32
2023/05/14 00:49:20;;;;;;;2.10;2.00;;;;;;;20.43;59.03;97434.91;4954268;28;20232;-31
2023/05/14 00:51:46;;;;;;;2.57;2.37;;;;;;;20.47;58.59;97439.31;4954618;29;20291;-31
2023/05/14 00:54:14;;;;;;;2.20;2.10;;;;;;;20.48;58.79;97435.94;4954235;28;20212;-30
2023/05/14 00:56:45;;;;;;;2.40;2.23;;;;;;;20.51;58.69;97436.03;4938345;29;20208;-30
2023/05/14 00:59:12;;;;;;;2.10;2.00;;;;;;;20.51;58.78;97428.38;4955553;28;20276;-31
2023/05/14 01:01:38;;;;;;;2.10;2.00;;;;;;;20.52;58.52;97432.66;4953571;29;20236;-31
2023/05/14 01:04:05;;;;;;;2.20;2.10;;;;;;;20.53;58.79;97428.41;4955420;28;20577;-30
2023/05/14 01:06:58;;;;;;;2.20;2.10;;;;;;;20.51;58.50;97420.72;4952938;29;20200;-30
2023/05/14 01:09:46;;;;;;;2.37;2.17;;;;;;;20.51;58.77;97422.38;4955533;28;20224;-30
2023/05/14 01:12:23;;;;;;;2.20;2.10;;;;;;;20.50;58.69;97415.56;4942924;28;20676;-31
2023/05/14 01:15:00;;;;;;;2.50;2.30;;;;;;;20.31;58.77;97383.47;4949607;29;20214;-31
2023/05/14 01:17:28;;;;;;;2.13;2.03;;;;;;;20.49;58.80;97414.69;4955212;28;20295;-30
2023/05/14 01:19:55;;;;;;;2.20;2.10;;;;;;;20.50;59.04;97416.44;4953596;28;20255;-31
2023/05/14 01:22:22;;;;;;;2.37;2.20;;;;;;;20.49;58.45;97414.69;4955033;29;20208;-32
2023/05/14 01:24:48;;;;;;;2.20;2.00;;;;;;;20.48;58.92;97407.84;4954585;29;20642;-31
2023/05/14 01:27:22;;;;;;;2.60;2.40;;;;;;;20.49;58.66;97413.84;4954438;28;20200;-31
2023/05/14 01:29:55;;;;;;;2.37;2.23;;;;;;;20.46;58.50;97412.03;4943370;29;20283;-31
2023/05/14 01:32:23;;;;;;;2.33;2.23;;;;;;;20.48;58.90;97410.41;4946013;29;20571;-31
2023/05/14 01:34:50;;;;;;;2.30;2.20;;;;;;;20.36;58.98;97378.50;4945449;29;20731;-31
2023/05/14 01:37:16;;;;;;;2.20;2.10;;;;;;;20.47;59.08;97408.69;4953271;28;20212;-31
2023/05/14 01:39:43;;;;;;;2.10;2.00;;;;;;;20.42;58.71;97386.34;4937069;29;20697;-31
2023/05/14 01:42:09;;;;;;;2.27;2.17;;;;;;;20.48;58.88;97404.41;4935668;29;20698;-31
2023/05/14 01:44:36;;;;;;;2.43;2.33;;;;;;;20.41;58.95;97390.63;4953555;29;20200;-31
2023/05/14 01:47:02;;;;;;;2.30;2.20;;;;;;;20.47;58.92;97400.16;4932016;29;20288;-31
2023/05/14 01:49:29;;;;;;;2.30;2.10;;;;;;;20.47;58.93;97398.47;4952280;29;20227;-31
2023/05/14 01:51:55;;;;;;;2.30;2.10;;;;;;;20.46;59.10;97396.72;4954205;29;20196;-31
2023/05/14 01:54:22;;;;;;;2.00;1.90;;;;;;;20.18;58.84;97355.84;4954863;28;20572;-31
2023/05/14 01:56:48;;;;;;;2.03;1.93;;;;;;;20.47;58.84;97398.47;4954632;28;20207;-30
2023/05/14 01:59:15;;;;;;;2.37;2.20;;;;;;;20.47;58.97;97401.03;4954570;28;20307;-31
2023/05/14 02:01:42;;;;;;;2.30;2.20;;;;;;;20.50;58.79;97402.78;4954488;28;20230;-32
2023/05/14 02:04:09;;;;;;;2.33;2.23;;;;;;;20.51;58.77;97402.84;4954485;29;20248;-30
2023/05/14 02:06:35;;;;;;;2.23;2.13;;;;;;;20.53;58.70;97406.31;4953890;29;20201;-31
2023/05/14 02:09:02;;;;;;;2.20;2.10;;;;;;;20.53;58.10;97400.34;4946042;28;20228;-31
2023/05/14 02:11:28;;;;;;;2.50;2.30;;;;;;;20.51;58.53;97402.84;4954417;28;20559;-32
2023/05/14 02:13:55;;;;;;;2.27;2.17;;;;;;;20.52;58.45;97396.06;4954605;28;20200;-31
2023/05/14 02:16:21;;;;;;;2.40;2.20;;;;;;;20.51;58.45;97397.72;4953817;28;20204;-31
2023/05/14 02:18:48;;;;;;;2.47;2.27;;;;;;;20.51;58.65;97415.59;4954706;28;20256;-32
2023/05/14 02:21:15;;;;;;;2.33;2.23;;;;;;;20.51;58.50;97387.53;4945503;28;20220;-31
2023/05/14 02:23:41;;;;;;;2.47;2.27;;;;;;;20.50;58.20;97387.47;4953120;28;20207;-31
2023/05/14 02:26:11;;;;;;;2.10;2.00;;;;;;;20.48;58.74;97379.78;4954303;29;20204;-30
2023/05/14 02:28:38;;;;;;;2.77;2.37;;;;;;;20.49;58.70;97384.03;4953921;28;20228;-30
2023/05/14 02:31:04;;;;;;;2.47;2.33;;;;;;;20.49;58.72;97385.75;4953639;29;20200;-31
2023/05/14 02:33:31;;;;;;;2.63;2.43;;;;;;;20.48;58.97;97386.56;4951249;28;20282;-32
2023/05/14 02:35:58;;;;;;;2.20;2.10;;;;;;;20.47;58.85;97385.72;4953626;28;20215;-31
2023/05/14 02:38:25;;;;;;;2.80;2.60;;;;;;;20.48;58.88;97384.00;4953319;28;20220;-31
2023/05/14 02:40:51;;;;;;;2.70;2.50;;;;;;;20.49;58.53;97383.19;4954454;28;20245;-31
2023/05/14 02:43:18;;;;;;;2.40;2.30;;;;;;;20.44;58.78;97377.94;4950052;28;20204;-31
2023/05/14 02:45:46;;;;;;;2.20;2.10;;;;;;;20.48;58.99;97384.88;4957737;28;20243;-32
2023/05/14 02:48:12;;;;;;;2.13;2.03;;;;;;;20.48;59.06;97376.34;4957426;28;20263;-31
2023/05/14 02:50:39;;;;;;;2.20;2.10;;;;;;;20.47;58.62;97380.59;4948792;28;20211;-32
2023/05/14 02:53:06;;;;;;;2.47;2.30;;;;;;;20.46;58.91;97380.56;4957847;28;20200;-32
2023/05/14 02:55:34;;;;;;;2.80;2.60;;;;;;;20.44;58.96;97371.97;4957828;29;20227;-30
2023/05/14 02:58:01;;;;;;;2.73;2.53;;;;;;;20.43;58.81;97376.19;4956589;29;20311;-30
2023/05/14 03:00:27;;;;;;;2.70;2.50;;;;;;;20.45;58.51;97377.13;4957319;28;20220;-31
2023/05/14 03:02:54;;;;;;;2.20;2.10;;;;;;;20.48;58.30;97374.66;4956626;29;20208;-31
2023/05/14 03:05:21;;;;;;;2.10;2.00;;;;;;;20.49;58.72;97375.53;4957466;28;20318;-31
2023/05/14 03:07:50;;;;;;;2.33;2.13;;;;;;;20.51;58.76;97374.75;4957413;28;20227;-31
2023/05/14 03:10:16;;;;;;;2.40;2.20;;;;;;;20.51;58.83;97367.09;4957586;28;20204;-30
2023/05/14 03:12:43;;;;;;;2.33;2.23;;;;;;;20.50;58.69;97362.81;4957893;28;20618;-32
2023/05/14 03:15:10;;;;;;;2.40;2.30;;;;;;;20.52;58.50;97370.53;4940531;29;20590;-32
2023/05/14 03:17:36;;;;;;;2.67;2.47;;;;;;;20.52;58.49;97371.38;4956895;28;20255;-32
2023/05/14 03:20:03;;;;;;;2.47;2.30;;;;;;;20.50;58.54;97362.81;4957572;28;20288;-31
2023/05/14 03:22:30;;;;;;;2.57;2.37;;;;;;;20.51;58.60;97369.66;4957299;28;20274;-31
2023/05/14 03:24:56;;;;;;;2.80;2.60;;;;;;;20.51;58.78;97368.78;4957396;28;20204;-31
2023/05/14 03:27:23;;;;;;;2.70;2.50;;;;;;;20.50;58.57;97367.06;4956876;28;20295;-31
2023/05/14 03:29:49;;;;;;;2.43;2.23;;;;;;;20.49;58.74;97370.44;4956968;28;20196;-31
2023/05/14 03:32:16;;;;;;;2.27;2.13;;;;;;;20.49;58.74;97368.72;4956989;28;20292;-31
2023/05/14 03:34:43;;;;;;;2.47;2.37;;;;;;;20.49;58.54;97367.88;4957162;28;20204;-31
2023/05/14 03:37:10;;;;;;;2.60;2.40;;;;;;;20.48;58.91;97367.00;4955950;29;20240;-31
2023/05/14 03:39:36;;;;;;;2.77;2.57;;;;;;;20.48;58.66;97363.56;4956805;28;20630;-32
2023/05/14 03:42:03;;;;;;;2.40;2.30;;;;;;;20.48;58.67;97364.44;4956995;29;20750;-32
2023/05/14 03:44:30;;;;;;;2.60;2.40;;;;;;;20.47;58.67;97360.19;4956947;28;20292;-31
2023/05/14 03:46:57;;;;;;;2.30;2.20;;;;;;;20.48;58.60;97361.03;4956618;28;20203;-31
2023/05/14 03:49:24;;;;;;;2.40;2.20;;;;;;;20.47;58.68;97362.72;4949374;28;20264;-30
2023/05/14 03:51:50;;;;;;;2.30;2.20;;;;;;;20.47;59.16;97352.53;4956333;29;20283;-31
2023/05/14 03:54:17;;;;;;;2.47;2.27;;;;;;;20.48;58.33;97348.25;4955916;28;20243;-32
2023/05/14 03:56:44;;;;;;;2.20;2.10;;;;;;;20.47;59.12;97351.66;4956356;28;20555;-32
2023/05/14 03:59:11;;;;;;;2.50;2.30;;;;;;;20.44;58.62;97352.44;4956470;28;20264;-32
2023/05/14 04:01:37;;;;;;;2.40;2.20;;;;;;;20.43;58.96;97352.38;4951607;28;20232;-32
2023/05/14 04:04:04;;;;;;;2.20;2.10;;;;;;;20.44;58.91;97349.00;4956888;28;20657;-31
2023/05/14 04:06:32;;;;;;;2.40;2.30;;;;;;;20.45;58.86;97354.16;4956634;28;20259;-31
2023/05/14 04:08:58;;;;;;;2.20;2.10;;;;;;;20.47;59.01;97347.41;4955274;28;20659;-31
2023/05/14 04:11:25;;;;;;;2.90;2.70;;;;;;;20.49;58.65;97347.47;4956825;28;20286;-31
2023/05/14 04:13:51;;;;;;;2.67;2.47;;;;;;;20.50;58.78;97350.06;4956195;29;20211;-31
2023/05/14 04:16:18;;;;;;;2.50;2.30;;;;;;;20.50;58.45;97344.97;4956786;28;20258;-31
2023/05/14 04:18:44;;;;;;;2.60;2.43;;;;;;;20.51;58.71;97345.78;4956518;28;20251;-32
2023/05/14 04:21:11;;;;;;;2.40;2.30;;;;;;;20.50;58.30;97342.41;4950335;28;20220;-31
2023/05/14 04:23:38;;;;;;;2.70;2.50;;;;;;;20.50;58.70;97346.63;4954194;29;20259;-30
2023/05/14 04:26:05;;;;;;;2.43;2.23;;;;;;;20.50;58.63;97344.06;4956247;28;20687;-32
2023/05/14 04:28:31;;;;;;;2.50;2.30;;;;;;;20.48;58.80;97344.03;4955633;28;20319;-30
2023/05/14 04:30:58;;;;;;;2.37;2.23;;;;;;;20.49;58.82;97343.19;4948217;28;20212;-32
2023/05/14 04:33:24;;;;;;;2.50;2.40;;;;;;;20.48;58.59;97343.16;4956215;28;20204;-32
2023/05/14 04:35:51;;;;;;;2.43;2.27;;;;;;;20.49;58.71;97347.47;4955858;28;20239;-31
2023/05/14 04:38:18;;;;;;;2.60;2.40;;;;;;;20.46;58.48;97339.72;4956106;28;20253;-32
2023/05/14 04:40:44;;;;;;;2.43;2.27;;;;;;;20.49;58.83;97345.75;4955643;29;20208;-31
2023/05/14 04:43:11;;;;;;;2.33;2.23;;;;;;;20.48;58.48;97346.59;4955709;28;20200;-31
2023/05/14 04:45:37;;;;;;;2.40;2.30;;;;;;;20.47;58.81;97341.44;4955836;28;20204;-32
2023/05/14 04:48:06;;;;;;;2.43;2.33;;;;;;;20.21;58.81;97299.81;4955378;28;20235;-31
2023/05/14 04:50:33;;;;;;;2.40;2.30;;;;;;;20.47;58.78;97349.09;4955512;28;20243;-31
2023/05/14 04:53:00;;;;;;;2.30;2.20;;;;;;;20.34;58.59;97327.41;4955814;28;20211;-31
2023/05/14 04:55:26;;;;;;;2.53;2.33;;;;;;;20.42;58.82;97340.41;4955498;28;20667;-30
2023/05/14 04:57:53;;;;;;;2.67;2.47;;;;;;;20.46;58.63;97349.91;4947757;28;20231;-31
2023/05/14 05:00:20;;;;;;;2.70;2.50;;;;;;;20.46;58.99;97348.22;4956043;28;20200;-31
2023/05/14 05:02:47;;;;;;;2.80;2.60;;;;;;;20.43;59.05;97345.56;4955454;28;20220;-32
2023/05/14 05:05:14;;;;;;;2.40;2.30;;;;;;;20.44;58.57;97356.66;4955744;28;20208;-32
2023/05/14 05:07:41;;;;;;;2.50;2.30;;;;;;;20.44;58.59;97357.53;4955193;28;20220;-31
2023/05/14 05:10:07;;;;;;;2.60;2.40;;;;;;;20.46;58.96;97360.13;4955064;28;20308;-31
2023/05/14 05:12:34;;;;;;;2.57;2.37;;;;;;;20.47;59.08;97364.41;4955908;28;20196;-31
2023/05/14 05:15:01;;;;;;;3.93;2.50;;;;;;;20.49;58.71;97365.34;4955620;29;20208;-32
2023/05/14 05:17:28;;;;;;;2.57;2.37;;;;;;;20.49;58.88;97366.16;4954968;28;20200;-31
2023/05/14 05:19:54;;;;;;;2.60;2.40;;;;;;;20.50;58.42;97362.81;4955255;28;20667;-31
2023/05/14 05:22:21;;;;;;;2.23;2.13;;;;;;;20.49;58.28;97355.97;4955170;28;20641;-31
2023/05/14 05:24:47;;;;;;;2.27;2.17;;;;;;;20.50;58.68;97357.72;4953826;29;20232;-31
2023/05/14 05:27:15;;;;;;;3.00;2.43;;;;;;;20.50;58.49;97354.28;4955263;28;20204;-31
2023/05/14 05:29:43;;;;;;;2.53;2.43;;;;;;;20.49;58.62;97355.13;4949774;28;20205;-31
2023/05/14 05:32:09;;;;;;;2.13;2.03;;;;;;;20.49;58.76;97352.56;4955144;28;20649;-31
2023/05/14 05:34:36;;;;;;;2.80;2.60;;;;;;;20.48;59.10;97351.69;4953733;28;20200;-31
2023/05/14 05:37:04;;;;;;;2.43;2.23;;;;;;;20.48;58.69;97351.69;4954541;29;20246;-31
2023/05/14 05:39:33;;;;;;;2.63;2.47;;;;;;;20.49;58.37;97357.66;4948761;28;20259;-31
2023/05/14 05:42:01;;;;;;;2.43;2.30;;;;;;;20.47;58.83;97349.97;4947102;29;20746;-31
2023/05/14 05:44:28;;;;;;;2.47;2.37;;;;;;;20.47;58.72;97352.53;4954582;28;20208;-31
2023/05/14 05:46:55;;;;;;;2.63;2.43;;;;;;;20.46;58.43;97352.47;4954595;28;20211;-32
2023/05/14 05:49:22;;;;;;;2.50;2.40;;;;;;;20.45;58.85;97353.28;4948243;28;20727;-31
2023/05/14 05:51:49;;;;;;;2.83;2.63;;;;;;;20.46;58.87;97368.63;4953067;29;20291;-31
2023/05/14 05:54:16;;;;;;;2.73;2.53;;;;;;;20.47;59.11;97356.75;4954493;29;20200;-31
2023/05/14 05:56:42;;;;;;;2.47;2.27;;;;;;;20.37;58.84;97337.72;4954150;29;20574;-31
2023/05/14 05:59:09;;;;;;;2.37;2.27;;;;;;;20.47;59.12;97355.06;4954491;28;20247;-31
2023/05/14 06:01:35;;;;;;;2.63;2.43;;;;;;;20.47;58.88;97352.53;4953870;28;20228;-32
2023/05/14 06:04:04;;;;;;;2.50;2.30;;;;;;;20.47;58.88;97351.66;4953551;29;20208;-30
2023/05/14 06:06:31;;;;;;;2.80;2.60;;;;;;;20.34;58.51;97332.53;4954164;29;20742;-31
2023/05/14 06:08:58;;;;;;;2.73;2.53;;;;;;;20.45;59.00;97353.28;4953111;28;20228;-31
2023/05/14 06:11:25;;;;;;;2.13;2.03;;;;;;;20.44;59.01;97354.97;4954315;29;20212;-31
2023/05/14 06:13:52;;;;;;;2.70;2.50;;;;;;;20.45;58.86;97359.25;4953878;28;20216;-31
2023/05/14 06:16:18;;;;;;;2.77;2.57;;;;;;;20.48;58.73;97361.03;4953689;28;20691;-31
2023/05/14 06:18:45;;;;;;;2.60;2.40;;;;;;;20.50;58.87;97367.06;4954237;28;20231;-31
2023/05/14 06:21:11;;;;;;;2.90;2.70;;;;;;;20.50;58.69;97357.72;4947676;28;20227;-32
2023/05/14 06:23:38;;;;;;;2.60;2.43;;;;;;;20.51;58.46;97358.56;4954224;29;20200;-31
2023/05/14 06:26:05;;;;;;;2.63;2.43;;;;;;;20.50;58.83;97356.84;4949029;28;20225;-31
2023/05/14 06:28:31;;;;;;;2.90;2.70;;;;;;;20.51;58.42;97363.66;4950049;28;20258;-31
2023/05/14 06:30:58;;;;;;;2.43;2.30;;;;;;;20.50;58.60;97365.38;4953783;28;20204;-31
2023/05/14 06:33:29;;;;;;;2.60;2.40;;;;;;;20.50;58.65;97360.28;4954148;28;20292;-31
2023/05/14 06:36:02;;;;;;;2.73;2.53;;;;;;;20.49;58.75;97362.78;4953879;28;20208;-30
2023/05/14 06:38:29;;;;;;;2.63;2.43;;;;;;;20.49;58.44;97366.16;4954136;28;20223;-31
2023/05/14 06:40:55;;;;;;;2.70;2.50;;;;;;;20.48;58.79;97356.78;4953615;28;20208;-31
2023/05/14 06:43:22;;;;;;;2.90;2.70;;;;;;;20.49;58.57;97360.22;4954006;28;20220;-32
2023/05/14 06:45:49;;;;;;;2.97;2.77;;;;;;;20.47;58.68;97361.84;4953723;29;20741;-32
2023/05/14 06:48:17;;;;;;;3.13;2.20;;;;;;;20.48;58.83;97378.91;4953662;28;20227;-31
2023/05/14 06:50:44;;;;;;;2.70;2.50;;;;;;;20.48;58.83;97363.56;4953817;28;20214;-30
2023/05/14 06:53:11;;;;;;;2.70;2.50;;;;;;;20.46;58.68;97366.09;4946402;28;20196;-30
2023/05/14 06:55:38;;;;;;;2.70;2.23;;;;;;;20.47;59.04;97370.38;4953700;29;20682;-31
2023/05/14 06:58:05;;;;;;;2.30;2.20;;;;;;;20.46;58.73;97363.53;4945898;28;20247;-31
2023/05/14 07:00:32;;;;;;;2.70;2.50;;;;;;;20.47;58.67;97383.16;4953795;28;20224;-31
2023/05/14 07:02:58;;;;;;;2.70;2.50;;;;;;;20.47;58.83;97372.06;4950727;28;20264;-31
2023/05/14 07:05:25;;;;;;;2.70;2.50;;;;;;;20.48;58.74;97368.69;4950114;29;20203;-31
2023/05/14 07:07:51;;;;;;;2.70;2.50;;;;;;;20.47;59.03;97374.63;4953311;28;20703;-31
2023/05/14 07:10:18;;;;;;;2.70;2.50;;;;;;;20.46;58.94;97375.44;4953884;28;20204;-32
2023/05/14 07:12:45;;;;;;;2.37;2.17;;;;;;;20.44;59.27;97370.28;4951256;28;20196;-31
2023/05/14 07:15:11;;;;;;;2.77;2.57;;;;;;;20.45;59.01;97369.47;4953774;28;20601;-31
2023/05/14 07:17:38;;;;;;;2.80;2.57;;;;;;;20.46;58.93;97368.63;4953357;28;20220;-32
2023/05/14 07:20:05;;;;;;;2.57;2.37;;;;;;;20.48;58.84;97369.56;4953339;28;20291;-32
2023/05/14 07:22:31;;;;;;;2.63;2.43;;;;;;;20.51;58.79;97364.53;4953395;28;20668;-31
2023/05/14 07:24:58;;;;;;;2.57;2.37;;;;;;;20.51;58.76;97361.13;4953598;28;20291;-31
2023/05/14 07:27:25;;;;;;;2.60;2.40;;;;;;;20.51;58.61;97356.00;4953436;28;20277;-31
2023/05/14 07:29:51;;;;;;;2.67;2.50;;;;;;;20.51;59.13;97354.34;4957167;28;20200;-31
2023/05/14 07:32:18;;;;;;;3.00;2.80;;;;;;;20.50;58.50;97350.06;4957014;29;20196;-31
2023/05/14 07:34:45;;;;;;;2.93;2.73;;;;;;;20.50;58.51;97355.16;4955672;29;20201;-31
2023/05/14 07:37:11;;;;;;;3.03;2.57;;;;;;;20.49;58.42;97350.84;4957040;28;20200;-31
2023/05/14 07:39:40;;;;;;;2.57;2.40;;;;;;;20.50;58.80;97354.28;4956362;28;20228;-31
2023/05/14 07:42:07;;;;;;;2.67;2.47;;;;;;;20.49;58.53;97347.47;4957135;28;20640;-31
2023/05/14 07:44:33;;;;;;;2.70;2.50;;;;;;;20.48;58.76;97349.13;4957117;29;20200;-31
2023/05/14 07:47:00;;;;;;;2.60;2.40;;;;;;;20.49;58.82;97355.13;4956614;28;20205;-31
2023/05/14 07:49:26;;;;;;;2.70;2.50;;;;;;;20.47;59.32;97349.97;4956750;28;20240;-33
2023/05/14 07:51:53;;;;;;;2.80;2.60;;;;;;;20.47;59.13;97344.88;4955578;28;20303;-30
2023/05/14 07:54:19;;;;;;;3.07;2.80;;;;;;;20.47;58.66;97339.75;4956027;29;20651;-31
2023/05/14 07:56:46;;;;;;;2.40;2.30;;;;;;;20.47;59.18;97349.97;4956608;28;20288;-31
2023/05/14 07:59:12;;;;;;;2.60;2.40;;;;;;;20.44;58.98;97339.66;4951371;28;20278;-31
2023/05/14 08:01:39;;;;;;;2.50;2.30;;;;;;;20.47;58.67;97346.53;4953715;28;20211;-34
2023/05/14 08:04:06;;;;;;;2.80;2.60;;;;;;;20.47;58.66;97347.41;4956787;28;20236;-31
2023/05/14 08:06:32;;;;;;;2.67;2.47;;;;;;;20.47;58.44;97343.97;4956515;28;20277;-31
2023/05/14 08:08:59;;;;;;;2.67;2.47;;;;;;;20.45;58.58;97341.38;4956417;28;20307;-31
2023/05/14 08:11:26;;;;;;;2.70;2.53;;;;;;;20.46;58.98;97332.91;4956448;29;20208;-32
2023/05/14 08:13:52;;;;;;;2.60;2.40;;;;;;;20.44;59.73;97328.56;4956547;29;20580;-31
2023/05/14 08:16:19;;;;;;;2.67;2.47;;;;;;;20.43;58.90;97345.56;4956090;29;20204;-32
2023/05/14 08:18:45;;;;;;;2.67;2.47;;;;;;;20.44;59.09;97310.72;4956096;28;20599;-31
2023/05/14 08:21:12;;;;;;;2.80;2.60;;;;;;;20.45;58.62;97307.31;4949159;29;20204;-31
2023/05/14 08:23:39;;;;;;;2.40;2.30;;;;;;;20.45;58.67;97303.09;4956317;29;20674;-32
2023/05/14 08:26:06;;;;;;;2.37;2.27;;;;;;;20.49;58.66;97306.63;4956474;28;20248;-31
2023/05/14 08:28:32;;;;;;;2.20;2.10;;;;;;;20.50;58.76;97304.13;4956249;28;20357;-31
2023/05/14 08:30:59;;;;;;;2.80;2.60;;;;;;;20.50;58.67;97299.00;4956007;29;20212;-32
2023/05/14 08:33:25;;;;;;;2.57;2.40;;;;;;;20.49;58.57;97294.69;4956096;29;20283;-31
2023/05/14 08:35:52;;;;;;;2.70;2.50;;;;;;;20.50;58.64;97293.03;4955761;29;20259;-31
2023/05/14 08:38:19;;;;;;;2.80;2.60;;;;;;;20.49;58.50;97288.75;4955763;28;20220;-33
2023/05/14 08:40:57;;;;;;;2.30;2.20;;;;;;;20.49;58.56;97293.84;4955621;28;20224;-30
2023/05/14 08:43:57;;;;;;;2.57;2.37;;;;;;;20.48;58.88;97292.97;4954507;29;20288;-31
2023/05/14 08:46:24;;;;;;;2.30;2.20;;;;;;;20.49;58.63;97296.41;4954715;28;20299;-31
2023/05/14 08:48:56;;;;;;;2.60;2.40;;;;;;;20.43;58.56;97286.00;4954147;28;20255;-31
2023/05/14 08:51:23;;;;;;;2.80;2.60;;;;;;;20.39;58.72;97279.94;4954753;29;20204;-32
2023/05/14 08:53:50;;;;;;;2.30;2.20;;;;;;;20.47;58.77;97290.38;4953944;29;20283;-31
2023/05/14 08:56:17;;;;;;;2.77;2.57;;;;;;;20.46;58.77;97289.50;4955949;28;20271;-31
2023/05/14 08:58:44;;;;;;;2.33;2.23;;;;;;;20.47;58.64;97292.94;4953816;28;20314;-31
2023/05/14 09:01:11;;;;;;;2.50;2.30;;;;;;;20.46;59.09;97293.75;4948079;29;20200;-31
2023/05/14 09:03:37;;;;;;;2.33;2.23;;;;;;;20.44;58.59;97286.06;4954350;29;20220;-31
2023/05/14 09:06:04;;;;;;;2.57;2.37;;;;;;;20.46;58.65;97281.00;4937457;29;20224;-31
2023/05/14 09:08:31;;;;;;;2.90;2.70;;;;;;;20.46;59.03;97281.84;4954062;28;20303;-31
2023/05/14 09:10:57;;;;;;;2.40;2.30;;;;;;;20.45;58.79;97271.59;4955670;28;20239;-32
2023/05/14 09:13:24;;;;;;;2.70;2.50;;;;;;;20.46;58.68;97275.91;4955377;29;20704;-31
2023/05/14 09:15:53;;;;;;;2.40;2.20;;;;;;;20.43;58.84;97266.44;4955231;29;20203;-31
2023/05/14 09:18:20;;;;;;;2.50;2.30;;;;;;;20.43;58.99;97273.25;4953896;28;20271;-32
2023/05/14 09:20:46;;;;;;;2.27;2.17;;;;;;;20.43;58.97;97268.16;4953927;28;20201;-29
2023/05/14 09:23:13;;;;;;;2.60;2.40;;;;;;;20.44;58.74;97264.75;4953789;28;20220;-31
2023/05/14 09:25:40;;;;;;;2.40;2.20;;;;;;;20.44;58.98;97265.63;4953943;28;20235;-32
2023/05/14 09:28:07;;;;;;;2.70;2.50;;;;;;;20.47;58.66;97267.41;4937369;29;20750;-31
2023/05/14 09:30:35;;;;;;;2.50;2.30;;;;;;;20.49;58.70;97270.88;4955108;28;20232;-31
2023/05/14 09:33:03;;;;;;;2.33;2.23;;;;;;;20.49;58.80;97269.16;4954806;28;20204;-31
2023/05/14 09:35:31;;;;;;;2.10;2.00;;;;;;;20.50;58.73;97270.94;4954753;29;20205;-31
2023/05/14 09:37:57;;;;;;;2.50;2.30;;;;;;;20.50;58.98;97270.06;4947953;28;20263;-30
2023/05/14 09:40:24;;;;;;;2.60;2.40;;;;;;;20.49;58.48;97271.72;4955265;28;20227;-31
2023/05/14 09:42:51;;;;;;;2.20;2.10;;;;;;;20.49;58.80;97281.09;4954407;28;20228;-32
2023/05/14 09:45:17;;;;;;;2.67;2.47;;;;;;;20.48;58.58;97261.47;4955104;28;20679;-32
2023/05/14 09:47:44;;;;;;;2.20;2.10;;;;;;;20.46;58.69;97258.88;4946992;28;20228;-31
2023/05/14 09:50:11;;;;;;;2.30;2.07;;;;;;;20.47;59.11;97260.63;4954130;28;20200;-31
2023/05/14 09:52:38;;;;;;;2.67;2.47;;;;;;;20.47;58.63;97249.53;4954423;28;20203;-31
2023/05/14 09:55:05;;;;;;;2.60;2.40;;;;;;;20.47;58.37;97252.97;4954634;28;20212;-31
2023/05/14 09:57:32;;;;;;;3.00;2.40;;;;;;;20.47;58.37;97239.31;4954386;28;20582;-31
2023/05/14 09:59:59;;;;;;;2.30;2.20;;;;;;;20.47;58.65;97241.88;4954459;29;20258;-30
2023/05/14 10:02:35;;;;;;;2.43;2.30;;;;;;;20.46;58.49;97247.81;4952984;29;20275;-31
2023/05/14 10:05:03;;;;;;;2.60;2.40;;;;;;;20.46;58.47;97237.59;4951678;28;20200;-31
2023/05/14 10:07:50;;;;;;;2.40;2.27;;;;;;;20.46;58.73;97238.44;4953780;29;20212;-31
2023/05/14 10:10:19;;;;;;;2.70;2.50;;;;;;;20.35;58.52;97211.78;4953598;29;20573;-31
2023/05/14 10:12:56;;;;;;;2.40;2.30;;;;;;;20.40;58.79;97224.66;4949262;29;20228;-31
2023/05/14 10:15:27;;;;;;;2.30;2.20;;;;;;;20.46;58.67;97232.50;4947196;29;20222;-32
2023/05/14 10:17:59;;;;;;;2.40;2.30;;;;;;;20.46;58.61;97240.16;4952835;28;20248;-31
2023/05/14 10:20:25;;;;;;;2.40;2.30;;;;;;;20.39;58.70;97223.78;4953362;29;20201;-31
2023/05/14 10:22:52;;;;;;;2.67;2.47;;;;;;;20.42;58.80;97230.66;4952899;28;20243;-30
2023/05/14 10:25:19;;;;;;;2.37;2.17;;;;;;;20.43;59.05;97237.53;4937267;29;20656;-31
2023/05/14 10:27:45;;;;;;;2.20;2.10;;;;;;;20.43;58.54;97240.06;4952634;28;20220;-31
2023/05/14 10:30:12;;;;;;;2.57;2.37;;;;;;;20.43;58.77;97233.25;4952935;29;20200;-31
2023/05/14 10:32:40;;;;;;;2.30;2.20;;;;;;;20.46;58.73;97227.41;4953881;28;20755;-31
2023/05/14 10:35:19;;;;;;;2.13;2.00;;;;;;;20.48;58.76;97223.19;4952214;28;20283;-31
2023/05/14 10:37:45;;;;;;;2.33;2.20;;;;;;;20.49;58.48;97228.31;4953723;28;20216;-31
2023/05/14 10:40:12;;;;;;;2.30;2.20;;;;;;;20.48;58.62;97220.63;4953910;28;20591;-31
2023/05/14 10:42:41;;;;;;;2.60;2.40;;;;;;;20.50;58.60;97216.44;4953630;29;20262;-31
2023/05/14 10:45:12;;;;;;;2.37;2.27;;;;;;;20.50;58.55;97213.88;4954080;28;20664;-31
2023/05/14 10:47:41;;;;;;;2.20;2.10;;;;;;;20.48;58.71;97224.06;4953677;28;20256;-31
2023/05/14 10:50:09;;;;;;;2.47;2.30;;;;;;;20.49;58.48;97218.13;4953542;29;20236;-31
2023/05/14 10:52:36;;;;;;;2.70;2.50;;;;;;;20.48;58.58;97203.63;4952586;29;20204;-31
2023/05/14 10:55:09;;;;;;;2.40;2.20;;;;;;;20.48;58.54;97210.41;4953536;29;20214;-31
2023/05/14 10:57:37;;;;;;;2.30;2.20;;;;;;;20.48;58.60;97197.66;4953699;28;20224;-31
2023/05/14 11:00:06;;;;;;;2.60;2.40;;;;;;;20.47;58.57;97194.25;4954000;29;20667;-32
2023/05/14 11:02:40;;;;;;;2.67;2.47;;;;;;;20.46;58.57;97200.16;4940986;29;20236;-31
2023/05/14 11:05:15;;;;;;;2.37;2.27;;;;;;;20.47;58.75;97199.38;4957431;28;20271;-31
2023/05/14 11:07:44;;;;;;;2.23;2.10;;;;;;;20.46;58.67;97205.25;4951762;28;20258;-31
2023/05/14 11:10:12;;;;;;;1.90;1.80;;;;;;;20.46;58.69;97196.78;4951911;29;20590;-31
2023/05/14 11:12:40;;;;;;;2.57;2.37;;;;;;;20.46;58.84;97192.50;4957820;28;20196;-30
2023/05/14 11:15:08;;;;;;;2.40;2.30;;;;;;;20.45;58.69;97184.81;4957282;28;20259;-31
2023/05/14 11:17:35;;;;;;;2.50;2.30;;;;;;;20.44;58.69;97189.06;4957165;28;20266;-31
2023/05/14 11:20:02;;;;;;;2.20;2.10;;;;;;;20.46;58.65;97195.06;4957349;28;20212;-31
2023/05/14 11:22:28;;;;;;;2.13;2.03;;;;;;;20.46;58.65;97184.84;4956200;29;20662;-31
2023/05/14 11:24:55;;;;;;;2.10;2.00;;;;;;;20.46;58.61;97173.78;4957145;28;20204;-32
2023/05/14 11:27:22;;;;;;;2.30;2.17;;;;;;;20.42;58.51;97171.97;4956996;28;20659;-31
2023/05/14 11:29:49;;;;;;;2.20;2.10;;;;;;;20.43;58.60;97168.59;4955955;29;20220;-30
2023/05/14 11:32:16;;;;;;;2.00;1.90;;;;;;;20.43;58.88;97169.44;4957142;28;20231;-32
2023/05/14 11:34:43;;;;;;;2.07;1.97;;;;;;;20.44;58.69;97171.19;4957302;28;20200;-31